LGKR/CFU METAR and TAF weather

Enter ICAO airport designator
Station Type Date Time Source
LGKR METAR 2019/02/16 06:50 UTC NOAA

LGKR 160650Z 26004KT CAVOK 06/M01 Q1025 NOSIG


Station Type Date Time Source
LGKR Decoded METAR 2019/02/16 06:50 UTC NOAA

Kerkyra Airport , Greece (LGKR) 39-37N 019-55E 4M
Feb 16, 2019 - 01:50 AM EST / 2019.02.16 0650 UTC
Wind: from the W (260 degrees) at 5 MPH (4 KT):0
Visibility: greater than 7 mile(s):0
Temperature: 42 F (6 C)
Dew Point: 30 F (-1 C)
Relative Humidity: 60%
Pressure (altimeter): 30.27 in. Hg (1025 hPa)
ob: LGKR 160650Z 26004KT CAVOK 06/M01 Q1025 NOSIG
cycle: 7

Station Type Date Time Source
LGKR TAF 2019/02/16 06:14 UTC NOAA

TAF LGKR 160500Z 1606/1706 VRB05KT 9999 FEW025
TEMPO 1612/1621 34010KT
BECMG 1622/1624 VRB05KT


Example: see airport list